Banja Luka, Bosnia and Herzegovina
Current Conditions -  °F | °C
As of 2:00 AM on Friday 28 Nov 2014 (Local Time) from LQBK Reporting Station
Haze Haze  
Wind Chill: 36°   Ceiling: 1000
Heat Index: 36°   Visibility: 3mi
Dew Point: 34°   Wind: 2mph
Humidity: 93%   Direction: 120°ESE
Pressure: 30.03"   Gusts: NA
Location:  44.78°N, 17.19°E
Report Text: LQBK 280000Z 12002KT 5000 BR OVC010 02/01 Q1017 NOSIG
Loading
Personal Weather Stations






























Interactive Weather Map New forecast layout! Learn more

10-Day Weather Forecast

Advertisements
Track Severe Weather on mobile